Time;durP1;ratioP1;P1;durP2;ratioP2;P2;SDS_P1;SDS_P2;PMS_P1;PMS_P2;Temp;Humidity;BMP_temperature;BMP_pressure;BME280_temperature;BME280_humidity;BME280_pressure;Samples;Min_cycle;Max_cycle;Signal;HPM_P1;HPM_P2
2022/07/06 00:04:05;;;;;;;;;;;;;;;22.74;39.16;96142.31;10513402;28;1796;-57
2022/07/06 00:09:06;;;;;;;;;;;;;;;22.67;39.52;96137.34;10506941;28;1870;-57
2022/07/06 00:14:07;;;;;;;;;;;;;;;22.65;39.66;96134.19;10510212;28;1800;-58
2022/07/06 00:19:08;;;;;;;;;;;;;;;22.67;39.69;96127.84;10512299;28;1913;-59
2022/07/06 00:24:08;;;;;;;;;;;;;;;22.62;39.93;96128.69;10509873;28;1867;-60
2022/07/06 00:29:08;;;;;;;;;;;;;;;22.58;40.05;96131.09;10510472;28;1863;-59
2022/07/06 00:34:09;;;;;;;;;;;;;;;22.58;40.44;96125.03;10515697;28;1906;-58
2022/07/06 00:39:09;;;;;;;;;;;;;;;22.59;40.58;96123.94;10504237;28;2048;-55
2022/07/06 00:44:10;;;;;;;;;;;;;;;22.52;40.61;96124.22;10503106;28;2073;-59
2022/07/06 00:50:13;;;;;;;;;;;;;;;22.50;40.69;96120.31;10505472;28;2073;-54
2022/07/06 00:54:32;;;;;;;;;;;;;;;22.53;41.11;96128.47;10511747;28;1904;-56
2022/07/06 00:59:32;;;;;;;;;;;;;;;22.47;41.15;96126.13;10510409;28;1968;-59
2022/07/06 01:04:32;;;;;;;;;;;;;;;22.41;41.11;96117.47;10496916;28;1838;-59
2022/07/06 01:09:32;;;;;;;;;;;;;;;22.39;41.46;96109.03;10510752;28;1904;-58
2022/07/06 01:14:34;;;;;;;;;;;;;;;22.39;41.61;96103.75;10510686;28;1837;-56
2022/07/06 01:19:34;;;;;;;;;;;;;;;22.47;41.88;96103.16;10512161;28;1937;-55
2022/07/06 01:24:36;;;;;;;;;;;;;;;22.53;41.55;96102.03;10509295;28;1969;-59
2022/07/06 01:29:49;;;;;;;;;;;;;;;22.53;41.73;96095.97;10505287;28;2150;-61
2022/07/06 01:34:50;;;;;;;;;;;;;;;22.53;41.83;96088.81;10508342;28;1908;-58
2022/07/06 01:40:03;;;;;;;;;;;;;;;22.50;41.70;96093.88;10506296;28;1897;-54
2022/07/06 01:45:04;;;;;;;;;;;;;;;22.43;41.91;96099.47;10505640;28;1956;-59
2022/07/06 01:50:06;;;;;;;;;;;;;;;22.34;42.14;96101.13;10510141;28;1969;-54
2022/07/06 01:55:06;;;;;;;;;;;;;;;22.30;42.28;96105.38;10509848;28;1973;-60
2022/07/06 02:00:07;;;;;;;;;;;;;;;22.19;42.35;96101.25;10508653;28;1944;-60
2022/07/06 02:05:07;;;;;;;;;;;;;;;22.16;42.25;96098.34;10505668;28;1937;-61
2022/07/06 02:10:08;;;;;;;;;;;;;;;22.22;42.46;96099.91;10506621;28;1886;-60
2022/07/06 02:15:08;;;;;;;;;;;;;;;22.18;42.39;96094.38;10511213;28;1940;-55
2022/07/06 02:20:09;;;;;;;;;;;;;;;22.18;42.30;96102.31;10512772;28;2047;-59
2022/07/06 02:25:10;;;;;;;;;;;;;;;22.14;42.51;96109.19;10509944;28;1992;-58
2022/07/06 02:30:10;;;;;;;;;;;;;;;22.12;42.71;96116.59;10509619;28;1932;-58
2022/07/06 02:35:10;;;;;;;;;;;;;;;22.08;42.77;96118.22;10511601;28;1904;-59
2022/07/06 02:40:11;;;;;;;;;;;;;;;22.08;42.91;96128.78;10509656;28;1910;-62
2022/07/06 02:45:12;;;;;;;;;;;;;;;21.99;42.97;96122.50;10511303;28;2021;-59
2022/07/06 02:50:12;;;;;;;;;;;;;;;21.99;43.02;96119.09;10514471;28;1858;-60
2022/07/06 02:55:13;;;;;;;;;;;;;;;21.89;43.18;96114.63;10514945;28;1913;-59
2022/07/06 03:00:13;;;;;;;;;;;;;;;21.91;43.26;96123.06;10515835;28;1912;-58
2022/07/06 03:05:13;;;;;;;;;;;;;;;21.91;43.59;96123.06;10518811;28;1925;-56
2022/07/06 03:10:15;;;;;;;;;;;;;;;22.03;43.51;96131.44;10518067;28;1893;-57
2022/07/06 03:15:16;;;;;;;;;;;;;;;21.99;43.79;96140.97;10511626;28;1917;-55
2022/07/06 03:20:17;;;;;;;;;;;;;;;22.01;43.61;96140.72;10518597;28;2004;-60
2022/07/06 03:25:17;;;;;;;;;;;;;;;21.94;43.84;96142.84;10521172;28;1936;-58
2022/07/06 03:30:17;;;;;;;;;;;;;;;21.99;44.04;96135.69;10516501;28;1784;-58
2022/07/06 03:35:18;;;;;;;;;;;;;;;22.01;44.10;96132.78;10522655;28;1922;-57
2022/07/06 03:40:19;;;;;;;;;;;;;;;21.99;44.22;96140.97;10514170;28;1941;-60
2022/07/06 03:45:19;;;;;;;;;;;;;;;21.98;44.19;96128.84;10514374;28;1983;-58
2022/07/06 03:50:20;;;;;;;;;;;;;;;22.00;44.08;96131.22;10508720;28;2005;-57
2022/07/06 03:55:20;;;;;;;;;;;;;;;21.95;44.41;96129.38;10512581;28;1902;-55
2022/07/06 04:00:21;;;;;;;;;;;;;;;21.88;44.64;96139.47;10513596;28;2025;-56
2022/07/06 04:05:22;;;;;;;;;;;;;;;22.00;44.49;96134.63;10517095;28;1870;-63
2022/07/06 04:10:23;;;;;;;;;;;;;;;22.04;44.55;96140.16;10508890;28;1855;-58
2022/07/06 04:15:23;;;;;;;;;;;;;;;22.05;44.92;96139.88;10513793;28;2074;-60
2022/07/06 04:20:24;;;;;;;;;;;;;;;22.12;44.43;96140.38;10514862;28;1976;-56
2022/07/06 04:25:24;;;;;;;;;;;;;;;22.15;44.50;96149.59;10516523;28;1909;-61
2022/07/06 04:30:25;;;;;;;;;;;;;;;22.11;44.73;96145.94;10509637;28;1940;-58
2022/07/06 04:35:26;;;;;;;;;;;;;;;22.04;44.97;96156.78;10514591;28;2049;-62
2022/07/06 04:40:26;;;;;;;;;;;;;;;21.98;45.18;96154.44;10515423;28;1973;-59
2022/07/06 04:45:26;;;;;;;;;;;;;;;21.99;45.42;96151.53;10516075;28;2072;-60
2022/07/06 04:50:27;;;;;;;;;;;;;;;21.85;45.67;96145.28;10510788;28;1933;-58
2022/07/06 04:55:27;;;;;;;;;;;;;;;21.96;45.87;96157.38;10507333;28;1960;-55
2022/07/06 05:00:27;;;;;;;;;;;;;;;21.95;46.05;96153.13;10515452;28;1905;-55
2022/07/06 05:05:28;;;;;;;;;;;;;;;21.98;45.81;96155.25;10511608;28;1897;-57
2022/07/06 05:10:28;;;;;;;;;;;;;;;21.93;45.98;96155.25;10506832;28;1909;-61
2022/07/06 05:15:28;;;;;;;;;;;;;;;21.99;45.96;96156.03;10514226;28;1906;-59
2022/07/06 05:20:28;;;;;;;;;;;;;;;21.97;45.69;96168.72;10512268;28;2024;-56
2022/07/06 05:25:29;;;;;;;;;;;;;;;21.91;45.59;96160.00;10506067;28;2039;-57
2022/07/06 05:30:30;;;;;;;;;;;;;;;21.98;46.01;96170.28;10509502;28;1884;-58
2022/07/06 05:35:30;;;;;;;;;;;;;;;21.95;45.63;96161.06;10508010;28;2024;-57
2022/07/06 05:40:30;;;;;;;;;;;;;;;21.97;45.63;96166.84;10507444;28;1984;-56
2022/07/06 05:45:31;;;;;;;;;;;;;;;22.01;45.44;96173.16;10514933;28;1861;-61
2022/07/06 05:50:31;;;;;;;;;;;;;;;21.99;45.25;96177.91;10500502;28;2005;-59
2022/07/06 05:55:31;;;;;;;;;;;;;;;21.89;45.70;96188.53;10503039;28;1949;-60
2022/07/06 06:00:32;;;;;;;;;;;;;;;21.93;45.35;96189.56;10506087;28;1910;-56
2022/07/06 06:05:33;;;;;;;;;;;;;;;21.96;45.18;96183.75;10506744;28;2019;-58
2022/07/06 06:10:34;;;;;;;;;;;;;;;21.98;45.58;96192.19;10506157;28;1925;-59
2022/07/06 06:15:34;;;;;;;;;;;;;;;21.94;45.53;96191.16;10507145;28;1993;-56
2022/07/06 06:20:35;;;;;;;;;;;;;;;22.04;45.82;96191.09;10511361;28;1988;-61
2022/07/06 06:25:36;;;;;;;;;;;;;;;22.18;45.14;96192.09;10515081;28;1980;-62
2022/07/06 06:30:36;;;;;;;;;;;;;;;22.06;44.56;96193.47;10509320;28;2044;-59
2022/07/06 06:35:37;;;;;;;;;;;;;;;22.01;44.18;96189.00;10508900;28;1962;-60
2022/07/06 06:40:37;;;;;;;;;;;;;;;22.08;44.83;96196.63;10501834;28;1976;-60
2022/07/06 06:45:37;;;;;;;;;;;;;;;22.17;44.18;96195.00;10505292;28;1957;-60
2022/07/06 06:50:37;;;;;;;;;;;;;;;22.09;43.34;96195.56;10509403;28;1993;-61
2022/07/06 06:55:38;;;;;;;;;;;;;;;22.11;44.00;96204.81;10513804;28;2063;-59
2022/07/06 07:00:38;;;;;;;;;;;;;;;22.17;43.78;96195.81;10504557;28;1937;-58
2022/07/06 07:05:38;;;;;;;;;;;;;;;22.11;43.60;96204.00;10510923;28;2128;-57
2022/07/06 07:10:39;;;;;;;;;;;;;;;22.11;43.79;96202.19;10509400;28;1897;-60
2022/07/06 07:15:39;;;;;;;;;;;;;;;22.20;44.25;96203.16;10504869;28;2117;-59
2022/07/06 07:20:39;;;;;;;;;;;;;;;22.15;43.76;96205.84;10515717;28;2230;-57
2022/07/06 07:25:39;;;;;;;;;;;;;;;22.14;43.78;96200.81;10512860;28;1903;-61
2022/07/06 07:30:41;;;;;;;;;;;;;;;22.10;43.34;96194.50;10503681;28;2248;-57
2022/07/06 07:35:41;;;;;;;;;;;;;;;22.18;43.99;96200.00;10522554;28;2112;-59
2022/07/06 07:40:42;;;;;;;;;;;;;;;22.26;43.28;96199.44;10514999;28;2179;-54
2022/07/06 07:45:42;;;;;;;;;;;;;;;22.31;43.07;96196.78;10518267;28;2152;-57
2022/07/06 07:50:42;;;;;;;;;;;;;;;22.40;43.73;96199.63;10516857;28;1835;-56
2022/07/06 07:55:44;;;;;;;;;;;;;;;22.48;42.73;96199.81;10511063;28;1875;-58
2022/07/06 08:00:44;;;;;;;;;;;;;;;22.50;42.86;96202.19;10506041;28;1913;-55
2022/07/06 08:05:46;;;;;;;;;;;;;;;22.54;42.94;96200.59;10511496;28;1815;-56
2022/07/06 08:10:47;;;;;;;;;;;;;;;22.59;43.00;96198.72;10512742;28;1850;-60
2022/07/06 08:15:47;;;;;;;;;;;;;;;22.64;41.73;96193.41;10520570;28;1863;-56
2022/07/06 08:20:48;;;;;;;;;;;;;;;22.62;42.47;96190.25;10517052;28;2172;-60
2022/07/06 08:25:48;;;;;;;;;;;;;;;22.67;42.12;96203.41;10515505;28;1831;-57
2022/07/06 08:30:48;;;;;;;;;;;;;;;22.70;42.53;96203.94;10510748;28;1871;-59
2022/07/06 08:35:49;;;;;;;;;;;;;;;22.75;42.33;96206.53;10511250;28;1830;-58
2022/07/06 08:40:49;;;;;;;;;;;;;;;22.57;41.82;96202.66;10518179;28;1918;-59
2022/07/06 08:45:49;;;;;;;;;;;;;;;22.55;41.75;96208.22;10486606;28;1809;-59
2022/07/06 08:50:50;;;;;;;;;;;;;;;22.61;42.40;96204.50;10518029;28;1877;-59
2022/07/06 08:55:50;;;;;;;;;;;;;;;22.69;42.40;96207.66;10519894;28;1808;-60
2022/07/06 09:00:50;;;;;;;;;;;;;;;22.77;42.30;96207.06;10513345;28;1918;-62
2022/07/06 09:05:51;;;;;;;;;;;;;;;22.83;42.54;96219.16;10510859;28;1832;-55
2022/07/06 09:10:51;;;;;;;;;;;;;;;22.88;42.44;96217.25;10515600;28;1839;-62
2022/07/06 09:15:52;;;;;;;;;;;;;;;22.92;41.91;96220.13;10516114;28;1867;-60
2022/07/06 09:20:53;;;;;;;;;;;;;;;23.02;41.59;96220.84;10511234;28;1930;-61
2022/07/06 09:25:53;;;;;;;;;;;;;;;22.90;40.89;96219.63;10520603;28;1866;-61
2022/07/06 09:30:56;;;;;;;;;;;;;;;22.81;40.65;96227.38;10506070;28;1820;-58
2022/07/06 09:36:00;;;;;;;;;;;;;;;22.92;41.11;96223.56;10496738;28;1805;-59
2022/07/06 09:41:02;;;;;;;;;;;;;;;22.90;40.41;96227.56;10508508;28;2209;-57
2022/07/06 09:46:03;;;;;;;;;;;;;;;22.91;41.12;96231.78;10510594;28;1824;-57
2022/07/06 09:51:06;;;;;;;;;;;;;;;22.99;41.55;96228.53;10512114;28;1911;-61
2022/07/06 09:56:06;;;;;;;;;;;;;;;23.08;41.47;96232.19;10508422;28;2266;-57
2022/07/06 10:01:07;;;;;;;;;;;;;;;23.13;41.48;96229.47;10506254;28;1943;-60
2022/07/06 10:06:07;;;;;;;;;;;;;;;23.04;40.89;96239.09;10490379;28;1792;-56
2022/07/06 10:11:11;;;;;;;;;;;;;;;23.13;40.88;96230.28;10512099;28;1811;-57
2022/07/06 10:16:11;;;;;;;;;;;;;;;23.16;40.31;96224.41;10516257;28;1906;-60
2022/07/06 10:21:11;;;;;;;;;;;;;;;23.21;40.80;96218.28;10509344;28;1961;-57
2022/07/06 10:26:12;;;;;;;;;;;;;;;23.20;41.21;96222.81;10506801;28;1894;-59
2022/07/06 10:31:13;;;;;;;;;;;;;;;23.25;40.65;96221.97;10513302;28;1839;-60
2022/07/06 10:36:13;;;;;;;;;;;;;;;23.28;40.63;96216.91;10511212;28;1863;-60
2022/07/06 10:41:14;;;;;;;;;;;;;;;23.28;41.28;96213.47;10491352;28;1961;-63
2022/07/06 10:46:15;;;;;;;;;;;;;;;23.29;41.66;96215.03;10506496;28;1847;-64
2022/07/06 10:51:22;;;;;;;;;;;;;;;23.32;41.76;96214.53;10508939;28;2016;-60
2022/07/06 10:56:52;;;;;;;;;;;;;;;23.36;42.17;96212.91;10511328;28;1905;-58
2022/07/06 11:02:11;;;;;;;;;;;;;;;23.38;41.94;96205.47;10512876;28;1780;-59
2022/07/06 11:07:12;;;;;;;;;;;;;;;23.41;42.12;96210.97;10511233;28;1768;-61
2022/07/06 11:12:18;;;;;;;;;;;;;;;23.43;42.13;96205.44;10516372;28;1803;-59
2022/07/06 11:17:18;;;;;;;;;;;;;;;23.47;42.25;96203.00;10518770;28;1946;-63
2022/07/06 11:22:19;;;;;;;;;;;;;;;23.48;42.17;96208.00;10519566;28;2153;-61
2022/07/06 11:27:22;;;;;;;;;;;;;;;23.50;42.25;96211.16;10516742;28;1942;-58
2022/07/06 11:32:23;;;;;;;;;;;;;;;23.50;42.55;96192.63;10512387;28;1839;-58
2022/07/06 11:37:25;;;;;;;;;;;;;;;23.53;42.69;96201.88;10516299;28;2306;-56
2022/07/06 11:42:26;;;;;;;;;;;;;;;23.54;42.49;96204.22;10508872;28;1839;-59
2022/07/06 11:47:30;;;;;;;;;;;;;;;23.57;42.60;96193.09;10506712;28;1785;-59
2022/07/06 11:52:31;;;;;;;;;;;;;;;23.60;42.89;96189.88;10515642;28;1954;-54
2022/07/06 11:57:32;;;;;;;;;;;;;;;23.61;42.58;96183.53;10509533;28;1965;-57
2022/07/06 12:02:32;;;;;;;;;;;;;;;23.64;42.52;96187.47;10515128;28;1808;-58
2022/07/06 12:07:32;;;;;;;;;;;;;;;23.65;42.63;96175.81;10511219;28;1906;-59
2022/07/06 12:12:33;;;;;;;;;;;;;;;23.69;42.66;96169.66;10512342;28;1843;-58
2022/07/06 12:17:33;;;;;;;;;;;;;;;23.70;42.58;96171.22;10512982;28;1902;-55
2022/07/06 12:22:35;;;;;;;;;;;;;;;23.72;42.88;96163.78;10510992;28;1771;-58
2022/07/06 12:27:36;;;;;;;;;;;;;;;23.73;42.72;96152.16;10516970;28;1950;-61
2022/07/06 12:32:37;;;;;;;;;;;;;;;23.76;42.94;96156.84;10508393;28;1808;-62
2022/07/06 12:37:38;;;;;;;;;;;;;;;23.78;42.68;96144.13;10510181;28;2097;-61
2022/07/06 12:42:45;;;;;;;;;;;;;;;23.80;42.80;96149.16;10504175;28;1882;-59
2022/07/06 12:47:59;;;;;;;;;;;;;;;23.81;43.05;96140.91;10519192;28;1969;-61
2022/07/06 12:52:59;;;;;;;;;;;;;;;23.82;43.11;96139.84;10516200;28;2164;-55
2022/07/06 12:58:00;;;;;;;;;;;;;;;23.84;42.92;96134.28;10511119;28;1983;-62
2022/07/06 13:03:00;;;;;;;;;;;;;;;23.87;42.99;96139.78;10505433;28;1823;-56
2022/07/06 13:08:01;;;;;;;;;;;;;;;23.88;43.20;96146.66;10512059;28;1776;-57
2022/07/06 13:13:02;;;;;;;;;;;;;;;23.90;43.17;96143.72;10517225;28;1918;-59
2022/07/06 13:18:02;;;;;;;;;;;;;;;23.90;42.97;96138.44;10511542;28;1964;-58
2022/07/06 13:23:02;;;;;;;;;;;;;;;23.92;43.01;96131.78;10502513;28;1940;-62
2022/07/06 13:28:03;;;;;;;;;;;;;;;23.92;43.19;96137.09;10510973;28;1874;-62
2022/07/06 13:33:03;;;;;;;;;;;;;;;23.94;43.36;96137.59;10509215;28;1859;-62
2022/07/06 13:38:03;;;;;;;;;;;;;;;23.95;43.31;96130.41;10511703;28;1968;-60
2022/07/06 13:43:04;;;;;;;;;;;;;;;23.96;43.46;96124.84;10507435;28;1760;-62
2022/07/06 13:48:04;;;;;;;;;;;;;;;23.97;43.38;96123.75;10512261;28;1938;-57
2022/07/06 13:53:05;;;;;;;;;;;;;;;23.99;43.61;96124.25;10511330;28;1907;-57
2022/07/06 13:58:06;;;;;;;;;;;;;;;24.00;43.63;96117.09;10509760;28;1913;-54
2022/07/06 14:03:08;;;;;;;;;;;;;;;24.01;43.37;96121.31;10509012;28;1735;-55
2022/07/06 14:08:08;;;;;;;;;;;;;;;24.01;43.61;96100.94;10509922;28;1824;-57
2022/07/06 14:13:09;;;;;;;;;;;;;;;24.02;43.65;96107.81;10499818;28;2227;-58
2022/07/06 14:18:09;;;;;;;;;;;;;;;24.04;43.50;96102.25;10514641;28;2008;-61
2022/07/06 14:23:09;;;;;;;;;;;;;;;24.05;43.66;96103.84;10499309;28;2069;-60
2022/07/06 14:28:10;;;;;;;;;;;;;;;24.05;43.85;96099.31;10500415;28;1772;-56
2022/07/06 14:33:10;;;;;;;;;;;;;;;24.06;43.55;96095.59;10498825;28;1966;-63
2022/07/06 14:38:11;;;;;;;;;;;;;;;24.07;43.79;96088.44;10497990;28;1914;-62
2022/07/06 14:43:11;;;;;;;;;;;;;;;24.07;43.56;96097.16;10516543;28;1701;-62
2022/07/06 14:48:12;;;;;;;;;;;;;;;24.09;43.61;96083.66;10518683;28;1803;-58
2022/07/06 14:53:12;;;;;;;;;;;;;;;24.10;43.65;96071.97;10530251;28;1831;-54
2022/07/06 14:58:13;;;;;;;;;;;;;;;24.10;43.74;96080.72;10530166;28;1894;-58
2022/07/06 15:03:13;;;;;;;;;;;;;;;24.12;43.66;96067.97;10519183;28;1808;-64
2022/07/06 15:08:14;;;;;;;;;;;;;;;24.12;43.73;96073.25;10516818;28;1799;-63
2022/07/06 15:13:15;;;;;;;;;;;;;;;24.12;43.86;96073.25;10519039;28;1869;-55
2022/07/06 15:18:15;;;;;;;;;;;;;;;24.13;44.07;96069.53;10516400;28;1998;-61
2022/07/06 15:23:16;;;;;;;;;;;;;;;24.13;44.15;96056.28;10510947;28;1832;-62
2022/07/06 15:28:19;;;;;;;;;;;;;;;24.14;44.00;96065.81;10515872;28;1816;-62
2022/07/06 15:33:19;;;;;;;;;;;;;;;24.15;43.93;96066.59;10518814;28;1760;-60
2022/07/06 15:38:19;;;;;;;;;;;;;;;24.15;44.00;96064.72;10518859;28;1947;-60
2022/07/06 15:43:20;;;;;;;;;;;;;;;24.15;43.96;96062.06;10512361;28;1847;-56
2022/07/06 15:48:20;;;;;;;;;;;;;;;24.16;44.20;96053.06;10523328;28;1827;-60
2022/07/06 15:53:22;;;;;;;;;;;;;;;24.17;44.26;96053.88;10517098;28;1850;-56
2022/07/06 15:58:22;;;;;;;;;;;;;;;24.17;44.00;96054.63;10507933;28;1913;-57
2022/07/06 16:03:22;;;;;;;;;;;;;;;24.18;44.07;96045.63;10514618;28;1915;-59
2022/07/06 16:08:24;;;;;;;;;;;;;;;24.18;44.28;96053.56;10517622;28;1887;-57
2022/07/06 16:13:24;;;;;;;;;;;;;;;24.18;44.29;96050.91;10500791;28;1800;-59
2022/07/06 16:18:24;;;;;;;;;;;;;;;24.19;44.17;96057.78;10508350;28;1910;-59
2022/07/06 16:23:25;;;;;;;;;;;;;;;24.19;44.08;96052.47;10503650;28;1964;-58
2022/07/06 16:28:25;;;;;;;;;;;;;;;24.21;44.12;96049.56;10509576;28;1891;-59
2022/07/06 16:33:26;;;;;;;;;;;;;;;24.21;44.25;96052.22;10510021;28;1839;-60
2022/07/06 16:38:27;;;;;;;;;;;;;;;24.21;44.20;96054.84;10507302;28;1969;-58
2022/07/06 16:43:27;;;;;;;;;;;;;;;24.21;44.52;96054.84;10508282;28;1847;-54
2022/07/06 16:48:28;;;;;;;;;;;;;;;24.21;44.31;96045.03;10508558;28;1772;-55
2022/07/06 16:53:28;;;;;;;;;;;;;;;24.21;44.41;96044.25;10503462;28;1948;-57
2022/07/06 16:58:28;;;;;;;;;;;;;;;24.22;44.54;96051.91;10511638;28;2069;-57
2022/07/06 17:03:29;;;;;;;;;;;;;;;24.22;44.34;96051.91;10507633;28;1737;-57
2022/07/06 17:08:29;;;;;;;;;;;;;;;24.22;44.33;96043.97;10511904;28;1773;-60
2022/07/06 17:13:30;;;;;;;;;;;;;;;24.23;44.47;96042.88;10509746;28;1780;-60
2022/07/06 17:18:30;;;;;;;;;;;;;;;24.23;44.40;96048.16;10505982;28;1965;-60
2022/07/06 17:23:30;;;;;;;;;;;;;;;24.23;44.29;96048.16;10509251;28;1899;-60
2022/07/06 17:28:32;;;;;;;;;;;;;;;24.24;44.41;96044.47;10504503;28;1779;-59
2022/07/06 17:33:32;;;;;;;;;;;;;;;24.24;44.49;96048.97;10517240;28;1799;-58
2022/07/06 17:38:32;;;;;;;;;;;;;;;24.24;44.51;96044.47;10512983;28;2020;-61
2022/07/06 17:43:33;;;;;;;;;;;;;;;24.25;44.64;96045.25;10500978;28;1776;-56
2022/07/06 17:48:33;;;;;;;;;;;;;;;24.25;44.50;96048.66;10511162;28;1878;-58
2022/07/06 17:53:35;;;;;;;;;;;;;;;24.24;44.60;96049.75;10508426;28;1891;-62
2022/07/06 17:58:35;;;;;;;;;;;;;;;24.25;44.29;96058.50;10506065;28;2064;-56
2022/07/06 18:03:35;;;;;;;;;;;;;;;24.26;44.43;96052.09;10513869;28;2155;-61
2022/07/06 18:08:38;;;;;;;;;;;;;;;24.25;44.42;96051.31;10497546;28;2165;-58
2022/07/06 18:13:39;;;;;;;;;;;;;;;24.25;44.42;96061.91;10501430;28;1843;-60
2022/07/06 18:18:40;;;;;;;;;;;;;;;24.24;44.31;96057.69;10508428;28;1976;-60
2022/07/06 18:23:40;;;;;;;;;;;;;;;24.24;43.13;96065.66;10505049;28;1882;-61
2022/07/06 18:28:40;;;;;;;;;;;;;;;24.18;43.48;96066.81;10508204;28;1811;-57
2022/07/06 18:33:42;;;;;;;;;;;;;;;24.13;43.03;96068.75;10500747;28;1837;-60
2022/07/06 18:38:42;;;;;;;;;;;;;;;24.02;41.58;96067.28;10502533;28;2365;-62
2022/07/06 18:43:42;;;;;;;;;;;;;;;23.94;41.49;96074.03;10505492;28;1995;-57
2022/07/06 18:48:43;;;;;;;;;;;;;;;23.95;41.99;96072.94;10503606;28;2157;-57
2022/07/06 18:53:44;;;;;;;;;;;;;;;23.97;42.04;96076.09;10502606;28;2077;-60
2022/07/06 18:58:48;;;;;;;;;;;;;;;23.90;41.91;96080.19;10497059;28;2158;-62
2022/07/06 19:03:49;;;;;;;;;;;;;;;23.82;41.19;96094.84;10500314;28;1811;-59
2022/07/06 19:08:49;;;;;;;;;;;;;;;23.85;42.05;96094.28;10502591;28;1927;-61
2022/07/06 19:13:50;;;;;;;;;;;;;;;23.87;42.03;96097.44;10506067;28;2231;-58
2022/07/06 19:18:50;;;;;;;;;;;;;;;23.93;42.52;96093.63;10512416;28;2179;-56
2022/07/06 19:23:51;;;;;;;;;;;;;;;23.91;42.07;96093.13;10507127;28;1851;-59
2022/07/06 19:28:52;;;;;;;;;;;;;;;23.93;42.53;96101.56;10506459;28;1831;-59
2022/07/06 19:33:53;;;;;;;;;;;;;;;23.89;41.80;96120.97;10514251;28;2180;-62
2022/07/06 19:38:53;;;;;;;;;;;;;;;23.89;42.13;96116.47;10507944;28;2235;-58
2022/07/06 19:43:54;;;;;;;;;;;;;;;23.90;41.85;96141.06;10518048;28;2129;-59
2022/07/06 19:48:55;;;;;;;;;;;;;;;23.89;41.90;96129.69;10517524;28;1880;-59
2022/07/06 19:53:55;;;;;;;;;;;;;;;23.90;42.16;96133.94;10520469;28;1878;-58
2022/07/06 19:58:55;;;;;;;;;;;;;;;23.90;41.66;96143.72;10500307;28;1977;-57
2022/07/06 20:03:56;;;;;;;;;;;;;;;23.91;42.02;96151.38;10509999;28;2081;-58
2022/07/06 20:08:58;;;;;;;;;;;;;;;23.90;41.82;96155.13;10506310;28;1773;-58
2022/07/06 20:13:59;;;;;;;;;;;;;;;23.86;41.59;96163.91;10507276;28;2165;-59
2022/07/06 20:18:59;;;;;;;;;;;;;;;23.87;41.82;96168.91;10515758;28;1973;-57
2022/07/06 20:24:01;;;;;;;;;;;;;;;23.80;41.35;96165.03;10507688;28;1839;-61
2022/07/06 20:29:01;;;;;;;;;;;;;;;23.73;41.09;96169.88;10518010;28;1851;-56
2022/07/06 20:34:02;;;;;;;;;;;;;;;23.69;40.95;96168.88;10506734;28;2172;-56
2022/07/06 20:39:02;;;;;;;;;;;;;;;23.68;41.34;96164.66;10504941;28;2188;-57
2022/07/06 20:44:03;;;;;;;;;;;;;;;23.68;41.42;96168.06;10512234;28;2235;-56
2022/07/06 20:49:04;;;;;;;;;;;;;;;23.67;41.20;96174.47;10502562;28;1898;-61
2022/07/06 20:54:06;;;;;;;;;;;;;;;23.69;41.63;96182.09;10511066;28;2247;-60
2022/07/06 20:59:06;;;;;;;;;;;;;;;23.71;41.74;96185.25;10511890;28;1925;-60
2022/07/06 21:04:06;;;;;;;;;;;;;;;23.70;41.53;96192.41;10510911;28;1875;-59
2022/07/06 21:09:07;;;;;;;;;;;;;;;23.69;41.35;96197.97;10512274;28;1995;-58
2022/07/06 21:14:09;;;;;;;;;;;;;;;23.61;41.25;96196.75;10505188;28;1761;-56
2022/07/06 21:19:10;;;;;;;;;;;;;;;23.58;41.16;96197.31;10514497;28;1980;-55
2022/07/06 21:24:10;;;;;;;;;;;;;;;23.62;41.40;96200.97;10514443;28;1807;-53
2022/07/06 21:29:10;;;;;;;;;;;;;;;23.64;41.19;96209.41;10513684;28;1857;-54
2022/07/06 21:34:11;;;;;;;;;;;;;;;23.63;41.12;96207.06;10508087;28;1883;-58
2022/07/06 21:39:11;;;;;;;;;;;;;;;23.57;41.15;96205.53;10510901;28;1975;-59
2022/07/06 21:44:12;;;;;;;;;;;;;;;23.58;41.35;96207.91;10509895;28;1911;-56
2022/07/06 21:49:12;;;;;;;;;;;;;;;23.54;40.62;96209.53;10506191;28;1862;-55
2022/07/06 21:54:13;;;;;;;;;;;;;;;23.50;40.69;96213.81;10508349;28;1871;-61
2022/07/06 21:59:13;;;;;;;;;;;;;;;23.48;40.82;96213.28;10511410;28;1909;-60
2022/07/06 22:04:14;;;;;;;;;;;;;;;23.42;39.99;96207.28;10515027;28;1864;-61
2022/07/06 22:09:14;;;;;;;;;;;;;;;23.38;39.87;96206.25;10509129;28;1925;-58
2022/07/06 22:14:16;;;;;;;;;;;;;;;;;;10519391;28;1878;-56
2022/07/06 22:19:17;;;;;;;;;;;;;;;23.31;39.92;96202.31;10510094;28;1906;-59
2022/07/06 22:24:17;;;;;;;;;;;;;;;23.29;39.23;96209.75;10507473;28;1855;-58
2022/07/06 22:29:18;;;;;;;;;;;;;;;23.21;39.03;96199.78;10502647;28;1847;-57
2022/07/06 22:34:18;;;;;;;;;;;;;;;23.18;38.95;96210.94;10501545;28;1811;-54
2022/07/06 22:39:19;;;;;;;;;;;;;;;23.15;39.00;96206.19;10510370;28;1909;-61
2022/07/06 22:44:20;;;;;;;;;;;;;;;23.12;39.16;96210.16;10502990;28;1824;-60
2022/07/06 22:49:20;;;;;;;;;;;;;;;23.11;38.82;96213.09;10503653;28;1836;-58
2022/07/06 22:54:22;;;;;;;;;;;;;;;23.09;39.37;96209.94;10503853;28;1872;-62
2022/07/06 22:59:22;;;;;;;;;;;;;;;23.04;39.49;96210.78;10506374;28;1914;-59
2022/07/06 23:04:23;;;;;;;;;;;;;;;23.03;39.42;96219.78;10516006;28;1838;-61
2022/07/06 23:09:24;;;;;;;;;;;;;;;22.99;39.19;96215.31;10514518;28;1815;-59
2022/07/06 23:14:24;;;;;;;;;;;;;;;22.98;38.91;96208.47;10517612;28;1956;-61
2022/07/06 23:19:25;;;;;;;;;;;;;;;22.94;39.29;96215.34;10512398;28;1971;-60
2022/07/06 23:24:26;;;;;;;;;;;;;;;22.95;39.26;96203.72;10517033;28;1866;-62
2022/07/06 23:29:26;;;;;;;;;;;;;;;22.90;39.17;96206.41;10507484;28;1801;-61
2022/07/06 23:34:27;;;;;;;;;;;;;;;22.89;39.08;96197.69;10506698;28;2171;-58
2022/07/06 23:39:28;;;;;;;;;;;;;;;22.86;39.16;96200.09;10508171;28;1910;-58
2022/07/06 23:44:31;;;;;;;;;;;;;;;22.84;38.50;96202.22;10511414;28;1835;-55
2022/07/06 23:49:31;;;;;;;;;;;;;;;22.83;38.75;96203.31;10510651;28;2156;-54
2022/07/06 23:54:32;;;;;;;;;;;;;;;22.79;38.78;96202.28;10517353;28;2160;-57
2022/07/06 23:59:32;;;;;;;;;;;;;;;22.78;38.81;96201.47;10507812;28;1910;-54
